Continental, Arizona
Current Conditions -  °F | °C
As of 7:53 AM on Tuesday 21 Oct 2014 (Local Time) from KTUS Reporting Station
Clear Clear  
Wind Chill: 64°   Ceiling: Unl
Heat Index: 64°   Visibility: 10mi
Dew Point: 50°   Wind: 5mph
Humidity: 60%   Direction: 120°ESE
Pressure: 29.98"   Gusts: NA
Location:  31.9776°N, 110.921°W
Report Text: KTUS 211453Z 12004KT 10SM CLR 18/10 A2998 RMK AO2 SLP116 T01780100 53012
Loading
Personal Weather Stations






























Interactive Weather Map
Tropical Storm Tracking
New forecast layout! Learn more

10-Day Weather Forecast

Advertisements
Track Severe Weather on mobile